sensor_id;sensor_type;location;lat;lon;timestamp;temperature;humidity
59572;DHT22;74587;45.880;11.484;2024-03-02T00:00:07;6.90;99.90
59572;DHT22;74587;45.880;11.484;2024-03-02T00:02:40;6.80;99.90
59572;DHT22;74587;45.880;11.484;2024-03-02T00:05:35;6.90;99.90
59572;DHT22;74587;45.880;11.484;2024-03-02T00:08:07;7.00;99.90
59572;DHT22;74587;45.880;11.484;2024-03-02T00:10:38;6.80;99.90
59572;DHT22;74587;45.880;11.484;2024-03-02T00:13:06;6.90;99.90
59572;DHT22;74587;45.880;11.484;2024-03-02T00:17:58;6.80;99.90
59572;DHT22;74587;45.880;11.484;2024-03-02T00:20:25;6.80;99.90
59572;DHT22;74587;45.880;11.484;2024-03-02T00:23:03;6.70;99.90
59572;DHT22;74587;45.880;11.484;2024-03-02T00:25:41;6.60;99.90
59572;DHT22;74587;45.880;11.484;2024-03-02T00:28:20;6.70;99.90
59572;DHT22;74587;45.880;11.484;2024-03-02T00:33:20;6.70;99.90
59572;DHT22;74587;45.880;11.484;2024-03-02T00:35:46;6.90;99.90
59572;DHT22;74587;45.880;11.484;2024-03-02T00:38:13;6.90;99.90
59572;DHT22;74587;45.880;11.484;2024-03-02T00:40:40;6.90;99.90
59572;DHT22;74587;45.880;11.484;2024-03-02T00:43:05;7.00;99.90
59572;DHT22;74587;45.880;11.484;2024-03-02T00:45:31;6.90;99.90
59572;DHT22;74587;45.880;11.484;2024-03-02T00:47:57;6.90;99.90
59572;DHT22;74587;45.880;11.484;2024-03-02T00:50:23;7.00;99.90
59572;DHT22;74587;45.880;11.484;2024-03-02T00:52:48;6.90;99.90
59572;DHT22;74587;45.880;11.484;2024-03-02T00:55:15;7.10;99.90
59572;DHT22;74587;45.880;11.484;2024-03-02T00:57:41;6.90;99.90
59572;DHT22;74587;45.880;11.484;2024-03-02T01:00:07;7.00;99.90
59572;DHT22;74587;45.880;11.484;2024-03-02T01:02:52;7.00;99.90
59572;DHT22;74587;45.880;11.484;2024-03-02T01:05:18;7.20;99.90
59572;DHT22;74587;45.880;11.484;2024-03-02T01:07:44;7.00;99.90
59572;DHT22;74587;45.880;11.484;2024-03-02T01:10:09;7.00;99.90
59572;DHT22;74587;45.880;11.484;2024-03-02T01:12:36;6.90;99.90
59572;DHT22;74587;45.880;11.484;2024-03-02T01:15:01;7.10;99.90
59572;DHT22;74587;45.880;11.484;2024-03-02T01:17:29;6.90;99.90
59572;DHT22;74587;45.880;11.484;2024-03-02T01:19:55;6.90;99.90
59572;DHT22;74587;45.880;11.484;2024-03-02T01:22:20;7.00;99.90
59572;DHT22;74587;45.880;11.484;2024-03-02T01:24:50;7.00;99.90
59572;DHT22;74587;45.880;11.484;2024-03-02T01:27:16;6.70;99.90
59572;DHT22;74587;45.880;11.484;2024-03-02T01:29:42;6.80;99.90
59572;DHT22;74587;45.880;11.484;2024-03-02T01:32:07;6.80;99.90
59572;DHT22;74587;45.880;11.484;2024-03-02T01:34:33;6.70;99.90
59572;DHT22;74587;45.880;11.484;2024-03-02T01:36:59;6.80;99.90
59572;DHT22;74587;45.880;11.484;2024-03-02T01:39:24;6.90;99.90
59572;DHT22;74587;45.880;11.484;2024-03-02T01:41:51;6.90;99.90
59572;DHT22;74587;45.880;11.484;2024-03-02T01:44:16;6.90;99.90
59572;DHT22;74587;45.880;11.484;2024-03-02T01:46:45;7.00;99.90
59572;DHT22;74587;45.880;11.484;2024-03-02T01:49:11;7.10;99.90
59572;DHT22;74587;45.880;11.484;2024-03-02T01:51:36;7.00;99.90
59572;DHT22;74587;45.880;11.484;2024-03-02T01:54:02;7.10;99.90
59572;DHT22;74587;45.880;11.484;2024-03-02T01:56:28;7.10;99.90
59572;DHT22;74587;45.880;11.484;2024-03-02T01:58:53;7.10;99.90
59572;DHT22;74587;45.880;11.484;2024-03-02T02:01:20;7.00;99.90
59572;DHT22;74587;45.880;11.484;2024-03-02T02:03:45;7.10;99.90
59572;DHT22;74587;45.880;11.484;2024-03-02T02:06:11;7.10;99.90
59572;DHT22;74587;45.880;11.484;2024-03-02T02:08:37;7.00;99.90
59572;DHT22;74587;45.880;11.484;2024-03-02T02:11:03;7.20;99.90
59572;DHT22;74587;45.880;11.484;2024-03-02T02:13:29;7.00;99.90
59572;DHT22;74587;45.880;11.484;2024-03-02T02:15:54;7.20;99.90
59572;DHT22;74587;45.880;11.484;2024-03-02T02:18:20;7.10;99.90
59572;DHT22;74587;45.880;11.484;2024-03-02T02:20:46;7.10;99.90
59572;DHT22;74587;45.880;11.484;2024-03-02T02:23:11;6.90;99.90
59572;DHT22;74587;45.880;11.484;2024-03-02T02:25:39;7.20;99.90
59572;DHT22;74587;45.880;11.484;2024-03-02T02:28:05;7.00;99.90
59572;DHT22;74587;45.880;11.484;2024-03-02T02:30:32;7.00;99.90
59572;DHT22;74587;45.880;11.484;2024-03-02T02:32:58;6.90;99.90
59572;DHT22;74587;45.880;11.484;2024-03-02T02:35:24;6.70;99.90
59572;DHT22;74587;45.880;11.484;2024-03-02T02:37:51;6.90;99.90
59572;DHT22;74587;45.880;11.484;2024-03-02T02:40:17;6.80;99.90
59572;DHT22;74587;45.880;11.484;2024-03-02T02:42:44;6.80;99.90
59572;DHT22;74587;45.880;11.484;2024-03-02T02:45:10;6.90;99.90
59572;DHT22;74587;45.880;11.484;2024-03-02T02:47:36;7.10;99.90
59572;DHT22;74587;45.880;11.484;2024-03-02T02:50:03;7.00;99.90
59572;DHT22;74587;45.880;11.484;2024-03-02T02:52:37;7.00;99.90
59572;DHT22;74587;45.880;11.484;2024-03-02T02:55:06;6.80;99.90
59572;DHT22;74587;45.880;11.484;2024-03-02T02:57:32;6.90;99.90
59572;DHT22;74587;45.880;11.484;2024-03-02T03:00:03;6.90;99.90
59572;DHT22;74587;45.880;11.484;2024-03-02T03:02:31;6.90;99.90
59572;DHT22;74587;45.880;11.484;2024-03-02T03:04:56;6.80;99.90
59572;DHT22;74587;45.880;11.484;2024-03-02T03:07:23;6.80;99.90
59572;DHT22;74587;45.880;11.484;2024-03-02T03:09:48;6.80;99.90
59572;DHT22;74587;45.880;11.484;2024-03-02T03:12:14;6.90;99.90
59572;DHT22;74587;45.880;11.484;2024-03-02T03:14:43;6.80;99.90
59572;DHT22;74587;45.880;11.484;2024-03-02T03:17:08;6.90;99.90
59572;DHT22;74587;45.880;11.484;2024-03-02T03:19:34;6.90;99.90
59572;DHT22;74587;45.880;11.484;2024-03-02T03:22:01;6.90;99.90
59572;DHT22;74587;45.880;11.484;2024-03-02T03:24:27;6.80;99.90
59572;DHT22;74587;45.880;11.484;2024-03-02T03:26:52;6.60;99.90
59572;DHT22;74587;45.880;11.484;2024-03-02T03:29:18;6.60;99.90
59572;DHT22;74587;45.880;11.484;2024-03-02T03:31:43;6.80;99.90
59572;DHT22;74587;45.880;11.484;2024-03-02T03:34:09;6.70;99.90
59572;DHT22;74587;45.880;11.484;2024-03-02T03:36:35;6.60;99.90
59572;DHT22;74587;45.880;11.484;2024-03-02T03:39:02;6.50;99.90
59572;DHT22;74587;45.880;11.484;2024-03-02T03:41:28;6.60;99.90
59572;DHT22;74587;45.880;11.484;2024-03-02T03:43:54;6.60;99.90
59572;DHT22;74587;45.880;11.484;2024-03-02T03:46:20;6.50;99.90
59572;DHT22;74587;45.880;11.484;2024-03-02T03:48:46;6.70;99.90
59572;DHT22;74587;45.880;11.484;2024-03-02T03:51:12;6.50;99.90
59572;DHT22;74587;45.880;11.484;2024-03-02T03:53:37;6.90;99.90
59572;DHT22;74587;45.880;11.484;2024-03-02T03:56:03;7.00;99.90
59572;DHT22;74587;45.880;11.484;2024-03-02T03:58:29;6.90;99.90
59572;DHT22;74587;45.880;11.484;2024-03-02T04:04:07;7.00;99.90
59572;DHT22;74587;45.880;11.484;2024-03-02T04:06:34;7.00;99.90
59572;DHT22;74587;45.880;11.484;2024-03-02T04:08:59;7.10;99.90
59572;DHT22;74587;45.880;11.484;2024-03-02T04:11:25;7.00;99.90
59572;DHT22;74587;45.880;11.484;2024-03-02T04:13:51;7.00;99.90
59572;DHT22;74587;45.880;11.484;2024-03-02T04:16:16;6.90;99.90
59572;DHT22;74587;45.880;11.484;2024-03-02T04:18:42;7.10;99.90
59572;DHT22;74587;45.880;11.484;2024-03-02T04:21:08;7.00;99.90
59572;DHT22;74587;45.880;11.484;2024-03-02T04:23:33;7.00;99.90
59572;DHT22;74587;45.880;11.484;2024-03-02T04:25:59;6.90;99.90
59572;DHT22;74587;45.880;11.484;2024-03-02T04:28:25;6.70;99.90
59572;DHT22;74587;45.880;11.484;2024-03-02T04:30:50;6.70;99.90
59572;DHT22;74587;45.880;11.484;2024-03-02T04:33:16;6.60;99.90
59572;DHT22;74587;45.880;11.484;2024-03-02T04:35:42;6.80;99.90
59572;DHT22;74587;45.880;11.484;2024-03-02T04:38:07;6.80;99.90
59572;DHT22;74587;45.880;11.484;2024-03-02T04:40:33;6.90;99.90
59572;DHT22;74587;45.880;11.484;2024-03-02T04:42:59;6.70;99.90
59572;DHT22;74587;45.880;11.484;2024-03-02T04:45:25;6.80;99.90
59572;DHT22;74587;45.880;11.484;2024-03-02T04:47:50;6.70;99.90
59572;DHT22;74587;45.880;11.484;2024-03-02T04:50:16;7.00;99.90
59572;DHT22;74587;45.880;11.484;2024-03-02T04:52:42;6.90;99.90
59572;DHT22;74587;45.880;11.484;2024-03-02T04:55:07;6.90;99.90
59572;DHT22;74587;45.880;11.484;2024-03-02T04:57:55;6.80;99.90
59572;DHT22;74587;45.880;11.484;2024-03-02T05:00:21;6.80;99.90
59572;DHT22;74587;45.880;11.484;2024-03-02T05:02:47;6.80;99.90
59572;DHT22;74587;45.880;11.484;2024-03-02T05:05:13;6.90;99.90
59572;DHT22;74587;45.880;11.484;2024-03-02T05:07:41;7.00;99.90
59572;DHT22;74587;45.880;11.484;2024-03-02T05:10:08;6.80;99.90
59572;DHT22;74587;45.880;11.484;2024-03-02T05:12:34;6.70;99.90
59572;DHT22;74587;45.880;11.484;2024-03-02T05:15:22;6.80;99.90
59572;DHT22;74587;45.880;11.484;2024-03-02T05:17:48;6.70;99.90
59572;DHT22;74587;45.880;11.484;2024-03-02T05:20:13;6.60;99.90
59572;DHT22;74587;45.880;11.484;2024-03-02T05:22:39;6.60;99.90
59572;DHT22;74587;45.880;11.484;2024-03-02T05:25:06;6.50;99.90
59572;DHT22;74587;45.880;11.484;2024-03-02T05:27:32;6.50;99.90
59572;DHT22;74587;45.880;11.484;2024-03-02T05:29:58;6.50;99.90
59572;DHT22;74587;45.880;11.484;2024-03-02T05:32:24;6.60;99.90
59572;DHT22;74587;45.880;11.484;2024-03-02T05:34:50;6.50;99.90
59572;DHT22;74587;45.880;11.484;2024-03-02T05:37:16;6.50;99.90
59572;DHT22;74587;45.880;11.484;2024-03-02T05:39:42;6.70;99.90
59572;DHT22;74587;45.880;11.484;2024-03-02T05:42:11;6.70;99.90
59572;DHT22;74587;45.880;11.484;2024-03-02T05:44:37;6.80;99.90
59572;DHT22;74587;45.880;11.484;2024-03-02T05:47:03;6.80;99.90
59572;DHT22;74587;45.880;11.484;2024-03-02T05:49:29;7.00;99.90
59572;DHT22;74587;45.880;11.484;2024-03-02T05:51:55;6.80;99.90
59572;DHT22;74587;45.880;11.484;2024-03-02T05:54:22;6.90;99.90
59572;DHT22;74587;45.880;11.484;2024-03-02T05:56:47;6.80;99.90
59572;DHT22;74587;45.880;11.484;2024-03-02T05:59:13;6.90;99.90
59572;DHT22;74587;45.880;11.484;2024-03-02T06:01:40;6.80;99.90
59572;DHT22;74587;45.880;11.484;2024-03-02T06:04:06;6.80;99.90
59572;DHT22;74587;45.880;11.484;2024-03-02T06:06:32;6.80;99.90
59572;DHT22;74587;45.880;11.484;2024-03-02T06:09:00;7.00;99.90
59572;DHT22;74587;45.880;11.484;2024-03-02T06:11:26;6.90;99.90
59572;DHT22;74587;45.880;11.484;2024-03-02T06:13:52;6.80;99.90
59572;DHT22;74587;45.880;11.484;2024-03-02T06:16:17;7.00;99.90
59572;DHT22;74587;45.880;11.484;2024-03-02T06:18:43;7.00;99.90
59572;DHT22;74587;45.880;11.484;2024-03-02T06:21:09;6.90;99.90
59572;DHT22;74587;45.880;11.484;2024-03-02T06:23:34;7.00;99.90
59572;DHT22;74587;45.880;11.484;2024-03-02T06:26:01;6.90;99.90
59572;DHT22;74587;45.880;11.484;2024-03-02T06:28:29;7.00;99.90
59572;DHT22;74587;45.880;11.484;2024-03-02T06:30:55;7.00;99.90
59572;DHT22;74587;45.880;11.484;2024-03-02T06:33:21;6.70;99.90
59572;DHT22;74587;45.880;11.484;2024-03-02T06:35:46;7.00;99.90
59572;DHT22;74587;45.880;11.484;2024-03-02T06:38:12;7.10;99.90
59572;DHT22;74587;45.880;11.484;2024-03-02T06:40:38;7.10;99.90
59572;DHT22;74587;45.880;11.484;2024-03-02T06:43:05;7.10;99.90
59572;DHT22;74587;45.880;11.484;2024-03-02T06:45:30;7.00;99.90
59572;DHT22;74587;45.880;11.484;2024-03-02T06:47:56;7.20;99.90
59572;DHT22;74587;45.880;11.484;2024-03-02T06:50:22;7.20;99.90
59572;DHT22;74587;45.880;11.484;2024-03-02T06:52:48;7.20;99.90
59572;DHT22;74587;45.880;11.484;2024-03-02T06:55:13;7.30;99.90
59572;DHT22;74587;45.880;11.484;2024-03-02T06:57:39;7.30;99.90
59572;DHT22;74587;45.880;11.484;2024-03-02T07:00:05;7.40;99.90
59572;DHT22;74587;45.880;11.484;2024-03-02T07:02:34;7.50;99.90
59572;DHT22;74587;45.880;11.484;2024-03-02T07:05:00;7.20;99.90
59572;DHT22;74587;45.880;11.484;2024-03-02T07:07:29;7.30;99.90
59572;DHT22;74587;45.880;11.484;2024-03-02T07:09:55;7.40;99.90
59572;DHT22;74587;45.880;11.484;2024-03-02T07:12:20;7.30;99.90
59572;DHT22;74587;45.880;11.484;2024-03-02T07:14:46;7.60;99.90
59572;DHT22;74587;45.880;11.484;2024-03-02T07:17:33;7.60;99.90
59572;DHT22;74587;45.880;11.484;2024-03-02T07:19:58;7.50;99.90
59572;DHT22;74587;45.880;11.484;2024-03-02T07:22:24;8.00;99.90
59572;DHT22;74587;45.880;11.484;2024-03-02T07:24:50;8.10;99.90
59572;DHT22;74587;45.880;11.484;2024-03-02T07:27:17;8.20;99.80
59572;DHT22;74587;45.880;11.484;2024-03-02T07:29:43;8.20;99.10
59572;DHT22;74587;45.880;11.484;2024-03-02T07:32:10;8.10;98.80
59572;DHT22;74587;45.880;11.484;2024-03-02T07:34:36;8.20;99.00
59572;DHT22;74587;45.880;11.484;2024-03-02T07:37:05;8.10;99.20
59572;DHT22;74587;45.880;11.484;2024-03-02T07:39:31;8.20;99.30
59572;DHT22;74587;45.880;11.484;2024-03-02T07:41:57;8.20;98.50
59572;DHT22;74587;45.880;11.484;2024-03-02T07:44:23;7.90;98.20
59572;DHT22;74587;45.880;11.484;2024-03-02T07:46:49;7.90;97.60
59572;DHT22;74587;45.880;11.484;2024-03-02T07:49:21;8.00;98.80
59572;DHT22;74587;45.880;11.484;2024-03-02T07:51:47;8.00;99.00
59572;DHT22;74587;45.880;11.484;2024-03-02T07:54:12;8.10;98.80
59572;DHT22;74587;45.880;11.484;2024-03-02T07:56:38;8.20;97.90
59572;DHT22;74587;45.880;11.484;2024-03-02T07:59:04;8.30;97.50
59572;DHT22;74587;45.880;11.484;2024-03-02T08:01:31;8.20;97.50
59572;DHT22;74587;45.880;11.484;2024-03-02T08:03:58;8.10;97.50
59572;DHT22;74587;45.880;11.484;2024-03-02T08:06:27;8.30;97.20
59572;DHT22;74587;45.880;11.484;2024-03-02T08:08:58;8.20;97.00
59572;DHT22;74587;45.880;11.484;2024-03-02T08:11:24;8.20;96.40
59572;DHT22;74587;45.880;11.484;2024-03-02T08:13:50;8.40;96.00
59572;DHT22;74587;45.880;11.484;2024-03-02T08:16:17;8.30;94.80
59572;DHT22;74587;45.880;11.484;2024-03-02T08:18:47;8.20;94.40
59572;DHT22;74587;45.880;11.484;2024-03-02T08:21:14;8.20;95.00
59572;DHT22;74587;45.880;11.484;2024-03-02T08:23:40;8.20;95.30
59572;DHT22;74587;45.880;11.484;2024-03-02T08:26:08;8.20;94.70
59572;DHT22;74587;45.880;11.484;2024-03-02T08:28:34;8.20;95.20
59572;DHT22;74587;45.880;11.484;2024-03-02T08:31:00;8.30;95.50
59572;DHT22;74587;45.880;11.484;2024-03-02T08:33:26;8.30;95.00
59572;DHT22;74587;45.880;11.484;2024-03-02T08:35:52;8.30;95.80
59572;DHT22;74587;45.880;11.484;2024-03-02T08:38:18;8.40;95.10
59572;DHT22;74587;45.880;11.484;2024-03-02T08:40:44;8.10;94.90
59572;DHT22;74587;45.880;11.484;2024-03-02T08:43:10;8.20;95.50
59572;DHT22;74587;45.880;11.484;2024-03-02T08:45:36;8.00;97.00
59572;DHT22;74587;45.880;11.484;2024-03-02T08:48:01;7.90;97.20
59572;DHT22;74587;45.880;11.484;2024-03-02T08:50:27;8.00;95.70
59572;DHT22;74587;45.880;11.484;2024-03-02T08:52:53;8.00;96.30
59572;DHT22;74587;45.880;11.484;2024-03-02T08:55:19;8.10;95.90
59572;DHT22;74587;45.880;11.484;2024-03-02T08:57:45;7.90;95.70
59572;DHT22;74587;45.880;11.484;2024-03-02T09:00:11;8.00;95.40
59572;DHT22;74587;45.880;11.484;2024-03-02T09:02:37;8.10;97.10
59572;DHT22;74587;45.880;11.484;2024-03-02T09:05:04;8.30;96.50
59572;DHT22;74587;45.880;11.484;2024-03-02T09:07:30;8.20;96.40
59572;DHT22;74587;45.880;11.484;2024-03-02T09:09:56;8.60;96.30
59572;DHT22;74587;45.880;11.484;2024-03-02T09:12:22;8.70;94.20
59572;DHT22;74587;45.880;11.484;2024-03-02T09:14:48;8.60;93.20
59572;DHT22;74587;45.880;11.484;2024-03-02T09:17:14;8.70;93.10
59572;DHT22;74587;45.880;11.484;2024-03-02T09:19:39;8.70;93.50
59572;DHT22;74587;45.880;11.484;2024-03-02T09:22:05;8.80;90.80
59572;DHT22;74587;45.880;11.484;2024-03-02T09:24:32;8.80;90.30
59572;DHT22;74587;45.880;11.484;2024-03-02T09:27:00;9.00;90.30
59572;DHT22;74587;45.880;11.484;2024-03-02T09:29:26;9.00;88.10
59572;DHT22;74587;45.880;11.484;2024-03-02T09:31:52;8.80;88.40
59572;DHT22;74587;45.880;11.484;2024-03-02T09:34:18;8.90;89.40
59572;DHT22;74587;45.880;11.484;2024-03-02T09:36:43;8.80;88.40
59572;DHT22;74587;45.880;11.484;2024-03-02T09:39:10;9.00;88.90
59572;DHT22;74587;45.880;11.484;2024-03-02T09:41:38;8.60;88.80
59572;DHT22;74587;45.880;11.484;2024-03-02T09:44:05;8.80;90.40
59572;DHT22;74587;45.880;11.484;2024-03-02T09:46:31;8.80;89.20
59572;DHT22;74587;45.880;11.484;2024-03-02T09:49:20;8.90;90.30
59572;DHT22;74587;45.880;11.484;2024-03-02T09:54:43;8.40;93.00
59572;DHT22;74587;45.880;11.484;2024-03-02T09:57:09;8.50;94.20
59572;DHT22;74587;45.880;11.484;2024-03-02T09:59:35;8.90;94.00
59572;DHT22;74587;45.880;11.484;2024-03-02T10:02:02;8.90;92.40
59572;DHT22;74587;45.880;11.484;2024-03-02T10:04:29;9.30;92.10
59572;DHT22;74587;45.880;11.484;2024-03-02T10:07:11;8.90;93.70
59572;DHT22;74587;45.880;11.484;2024-03-02T10:09:37;8.90;92.10
59572;DHT22;74587;45.880;11.484;2024-03-02T10:12:09;8.80;94.50
59572;DHT22;74587;45.880;11.484;2024-03-02T10:14:35;8.90;93.40
59572;DHT22;74587;45.880;11.484;2024-03-02T10:17:03;9.40;92.80
59572;DHT22;74587;45.880;11.484;2024-03-02T10:19:29;9.60;89.70
59572;DHT22;74587;45.880;11.484;2024-03-02T10:21:59;9.90;88.80
59572;DHT22;74587;45.880;11.484;2024-03-02T10:24:25;9.80;86.70
59572;DHT22;74587;45.880;11.484;2024-03-02T10:26:51;9.90;87.40
59572;DHT22;74587;45.880;11.484;2024-03-02T10:29:18;10.00;87.20
59572;DHT22;74587;45.880;11.484;2024-03-02T10:31:46;10.10;86.90
59572;DHT22;74587;45.880;11.484;2024-03-02T10:34:13;10.10;86.90
59572;DHT22;74587;45.880;11.484;2024-03-02T10:36:43;9.90;86.40
59572;DHT22;74587;45.880;11.484;2024-03-02T10:39:13;9.70;86.70
59572;DHT22;74587;45.880;11.484;2024-03-02T10:41:40;9.40;86.90
59572;DHT22;74587;45.880;11.484;2024-03-02T10:44:08;8.70;90.20
59572;DHT22;74587;45.880;11.484;2024-03-02T10:46:38;8.60;91.20
59572;DHT22;74587;45.880;11.484;2024-03-02T10:49:05;8.90;92.20
59572;DHT22;74587;45.880;11.484;2024-03-02T10:51:34;9.10;90.90
59572;DHT22;74587;45.880;11.484;2024-03-02T10:54:02;9.40;89.70
59572;DHT22;74587;45.880;11.484;2024-03-02T10:56:34;9.40;88.60
59572;DHT22;74587;45.880;11.484;2024-03-02T11:01:43;8.80;87.70
59572;DHT22;74587;45.880;11.484;2024-03-02T11:04:09;9.10;89.90
59572;DHT22;74587;45.880;11.484;2024-03-02T11:06:38;9.20;89.30
59572;DHT22;74587;45.880;11.484;2024-03-02T11:09:07;9.20;90.00
59572;DHT22;74587;45.880;11.484;2024-03-02T11:11:41;9.40;89.90
59572;DHT22;74587;45.880;11.484;2024-03-02T11:14:13;9.60;89.20
59572;DHT22;74587;45.880;11.484;2024-03-02T11:16:39;9.50;87.90
59572;DHT22;74587;45.880;11.484;2024-03-02T11:19:11;9.00;87.10
59572;DHT22;74587;45.880;11.484;2024-03-02T11:21:38;9.10;88.40
59572;DHT22;74587;45.880;11.484;2024-03-02T11:24:36;9.40;88.10
59572;DHT22;74587;45.880;11.484;2024-03-02T11:27:04;9.40;88.00
59572;DHT22;74587;45.880;11.484;2024-03-02T11:32:03;9.60;86.90
59572;DHT22;74587;45.880;11.484;2024-03-02T11:34:35;9.50;87.20
59572;DHT22;74587;45.880;11.484;2024-03-02T11:37:02;9.60;87.50
59572;DHT22;74587;45.880;11.484;2024-03-02T11:39:28;9.40;87.30
59572;DHT22;74587;45.880;11.484;2024-03-02T11:41:58;9.70;88.00
59572;DHT22;74587;45.880;11.484;2024-03-02T11:44:27;9.80;88.10
59572;DHT22;74587;45.880;11.484;2024-03-02T11:49:38;10.00;88.50
59572;DHT22;74587;45.880;11.484;2024-03-02T11:52:08;10.10;88.70
59572;DHT22;74587;45.880;11.484;2024-03-02T11:54:38;10.00;88.30
59572;DHT22;74587;45.880;11.484;2024-03-02T11:57:21;10.10;88.40
59572;DHT22;74587;45.880;11.484;2024-03-02T11:59:50;10.20;88.00
59572;DHT22;74587;45.880;11.484;2024-03-02T12:02:20;10.40;88.00
59572;DHT22;74587;45.880;11.484;2024-03-02T12:04:47;10.20;86.60
59572;DHT22;74587;45.880;11.484;2024-03-02T12:07:21;10.10;85.70
59572;DHT22;74587;45.880;11.484;2024-03-02T12:09:48;9.80;86.10
59572;DHT22;74587;45.880;11.484;2024-03-02T12:12:14;10.00;87.20
59572;DHT22;74587;45.880;11.484;2024-03-02T12:14:53;10.30;87.50
59572;DHT22;74587;45.880;11.484;2024-03-02T12:17:21;10.40;87.10
59572;DHT22;74587;45.880;11.484;2024-03-02T12:19:47;10.50;87.00
59572;DHT22;74587;45.880;11.484;2024-03-02T12:22:13;10.40;86.90
59572;DHT22;74587;45.880;11.484;2024-03-02T12:24:39;10.40;87.40
59572;DHT22;74587;45.880;11.484;2024-03-02T12:27:05;10.40;87.80
59572;DHT22;74587;45.880;11.484;2024-03-02T12:29:32;10.50;88.50
59572;DHT22;74587;45.880;11.484;2024-03-02T12:31:59;10.40;88.80
59572;DHT22;74587;45.880;11.484;2024-03-02T12:34:30;10.40;89.20
59572;DHT22;74587;45.880;11.484;2024-03-02T12:36:58;10.50;89.20
59572;DHT22;74587;45.880;11.484;2024-03-02T12:39:24;10.40;89.20
59572;DHT22;74587;45.880;11.484;2024-03-02T12:41:50;10.50;89.60
59572;DHT22;74587;45.880;11.484;2024-03-02T12:44:17;10.30;89.50
59572;DHT22;74587;45.880;11.484;2024-03-02T12:46:44;10.30;89.70
59572;DHT22;74587;45.880;11.484;2024-03-02T12:49:12;10.20;90.10
59572;DHT22;74587;45.880;11.484;2024-03-02T12:51:39;10.10;90.30
59572;DHT22;74587;45.880;11.484;2024-03-02T12:54:09;10.20;90.10
59572;DHT22;74587;45.880;11.484;2024-03-02T12:56:41;10.10;88.70
59572;DHT22;74587;45.880;11.484;2024-03-02T13:01:57;9.90;87.40
59572;DHT22;74587;45.880;11.484;2024-03-02T13:04:25;9.80;86.80
59572;DHT22;74587;45.880;11.484;2024-03-02T13:06:52;9.70;88.00
59572;DHT22;74587;45.880;11.484;2024-03-02T13:09:18;9.70;88.50
59572;DHT22;74587;45.880;11.484;2024-03-02T13:15:31;10.00;88.30
59572;DHT22;74587;45.880;11.484;2024-03-02T13:21:05;10.30;87.70
59572;DHT22;74587;45.880;11.484;2024-03-02T13:23:31;10.20;87.50
59572;DHT22;74587;45.880;11.484;2024-03-02T13:25:58;10.30;87.70
59572;DHT22;74587;45.880;11.484;2024-03-02T13:31:47;10.30;87.40
59572;DHT22;74587;45.880;11.484;2024-03-02T13:34:12;10.60;87.60
59572;DHT22;74587;45.880;11.484;2024-03-02T13:36:38;10.50;87.10
59572;DHT22;74587;45.880;11.484;2024-03-02T13:39:04;10.50;87.20
59572;DHT22;74587;45.880;11.484;2024-03-02T13:41:36;10.50;87.50
59572;DHT22;74587;45.880;11.484;2024-03-02T13:44:02;10.50;87.70
59572;DHT22;74587;45.880;11.484;2024-03-02T13:46:28;10.40;87.60
59572;DHT22;74587;45.880;11.484;2024-03-02T13:48:54;10.40;87.60
59572;DHT22;74587;45.880;11.484;2024-03-02T13:51:21;10.30;87.50
59572;DHT22;74587;45.880;11.484;2024-03-02T13:53:46;10.40;87.50
59572;DHT22;74587;45.880;11.484;2024-03-02T13:56:12;10.30;87.60
59572;DHT22;74587;45.880;11.484;2024-03-02T13:58:38;10.30;87.70
59572;DHT22;74587;45.880;11.484;2024-03-02T14:01:05;10.40;87.70
59572;DHT22;74587;45.880;11.484;2024-03-02T14:03:31;10.30;87.70
59572;DHT22;74587;45.880;11.484;2024-03-02T14:05:57;10.30;88.20
59572;DHT22;74587;45.880;11.484;2024-03-02T14:08:23;10.30;88.30
59572;DHT22;74587;45.880;11.484;2024-03-02T14:10:49;10.20;88.00
59572;DHT22;74587;45.880;11.484;2024-03-02T14:13:14;10.30;88.10
59572;DHT22;74587;45.880;11.484;2024-03-02T14:15:41;10.30;88.20
59572;DHT22;74587;45.880;11.484;2024-03-02T14:18:07;10.30;88.00
59572;DHT22;74587;45.880;11.484;2024-03-02T14:20:35;10.30;87.80
59572;DHT22;74587;45.880;11.484;2024-03-02T14:23:01;10.40;87.80
59572;DHT22;74587;45.880;11.484;2024-03-02T14:25:28;10.30;88.10
59572;DHT22;74587;45.880;11.484;2024-03-02T14:27:57;10.20;88.20
59572;DHT22;74587;45.880;11.484;2024-03-02T14:30:23;10.20;88.10
59572;DHT22;74587;45.880;11.484;2024-03-02T14:32:49;10.20;88.10
59572;DHT22;74587;45.880;11.484;2024-03-02T14:35:15;10.10;88.60
59572;DHT22;74587;45.880;11.484;2024-03-02T14:37:40;10.00;88.00
59572;DHT22;74587;45.880;11.484;2024-03-02T14:40:07;9.70;87.40
59572;DHT22;74587;45.880;11.484;2024-03-02T14:42:35;9.60;88.50
59572;DHT22;74587;45.880;11.484;2024-03-02T14:45:02;9.50;88.90
59572;DHT22;74587;45.880;11.484;2024-03-02T14:47:33;9.40;89.40
59572;DHT22;74587;45.880;11.484;2024-03-02T14:50:00;9.40;89.80
59572;DHT22;74587;45.880;11.484;2024-03-02T14:52:26;9.30;90.00
59572;DHT22;74587;45.880;11.484;2024-03-02T14:54:52;9.30;90.50
59572;DHT22;74587;45.880;11.484;2024-03-02T14:57:18;9.30;90.50
59572;DHT22;74587;45.880;11.484;2024-03-02T14:59:43;9.30;91.20
59572;DHT22;74587;45.880;11.484;2024-03-02T15:02:09;9.30;91.00
59572;DHT22;74587;45.880;11.484;2024-03-02T15:04:35;9.30;90.90
59572;DHT22;74587;45.880;11.484;2024-03-02T15:07:01;9.50;91.10
59572;DHT22;74587;45.880;11.484;2024-03-02T15:09:27;9.30;91.00
59572;DHT22;74587;45.880;11.484;2024-03-02T15:11:52;9.50;90.60
59572;DHT22;74587;45.880;11.484;2024-03-02T15:14:18;9.50;91.00
59572;DHT22;74587;45.880;11.484;2024-03-02T15:16:44;9.60;91.20
59572;DHT22;74587;45.880;11.484;2024-03-02T15:19:10;9.60;91.90
59572;DHT22;74587;45.880;11.484;2024-03-02T15:21:35;9.50;92.70
59572;DHT22;74587;45.880;11.484;2024-03-02T15:24:01;9.50;93.50
59572;DHT22;74587;45.880;11.484;2024-03-02T15:26:27;9.60;93.80
59572;DHT22;74587;45.880;11.484;2024-03-02T15:28:52;9.60;93.80
59572;DHT22;74587;45.880;11.484;2024-03-02T15:31:20;9.50;94.40
59572;DHT22;74587;45.880;11.484;2024-03-02T15:33:46;9.60;94.20
59572;DHT22;74587;45.880;11.484;2024-03-02T15:36:12;9.40;94.20
59572;DHT22;74587;45.880;11.484;2024-03-02T15:38:37;9.50;94.30
59572;DHT22;74587;45.880;11.484;2024-03-02T15:41:04;9.40;94.70
59572;DHT22;74587;45.880;11.484;2024-03-02T15:43:30;9.40;94.90
59572;DHT22;74587;45.880;11.484;2024-03-02T15:45:57;9.40;95.10
59572;DHT22;74587;45.880;11.484;2024-03-02T15:48:22;9.40;95.50
59572;DHT22;74587;45.880;11.484;2024-03-02T15:50:49;9.20;95.90
59572;DHT22;74587;45.880;11.484;2024-03-02T15:53:18;9.30;96.30
59572;DHT22;74587;45.880;11.484;2024-03-02T15:55:43;9.10;96.60
59572;DHT22;74587;45.880;11.484;2024-03-02T15:58:09;9.20;96.90